Time;durP1;ratioP1;P1;durP2;ratioP2;P2;SDS_P1;SDS_P2;PMS_P1;PMS_P2;Temp;Humidity;BMP_temperature;BMP_pressure;BME280_temperature;BME280_humidity;BME280_pressure;Samples;Min_cycle;Max_cycle;Signal;HPM_P1;HPM_P2
2021/04/20 00:01:03;;;;;;;15.15;3.97;;;10.50;99.90;;;10.98;69.75;101295.75;5078492;28;20208;-74
2021/04/20 00:03:29;;;;;;;14.65;4.25;;;10.50;99.90;;;10.97;69.66;101288.78;5072423;28;20569;-75
2021/04/20 00:05:55;;;;;;;14.95;3.97;;;10.50;99.90;;;10.94;69.73;101288.88;5076063;28;20544;-76
2021/04/20 00:08:22;;;;;;;13.02;4.32;;;10.40;99.90;;;10.93;69.99;101297.66;5084637;28;20304;-71
2021/04/20 00:10:48;;;;;;;13.98;3.67;;;10.40;99.90;;;10.88;69.83;101284.72;5111466;28;20338;-75
2021/04/20 00:13:16;;;;;;;16.67;4.47;;;10.40;99.90;;;10.87;69.64;101276.88;5092196;28;20206;-74
2021/04/20 00:15:43;;;;;;;14.05;3.70;;;10.40;99.90;;;10.85;69.72;101284.78;5096073;28;20212;-75
2021/04/20 00:18:09;;;;;;;12.05;4.20;;;10.30;99.90;;;10.81;70.09;101277.06;5092869;28;20187;-75
2021/04/20 00:20:37;;;;;;;11.27;3.33;;;10.30;99.90;;;10.79;70.04;101282.34;5093037;28;20211;-76
2021/04/20 00:23:06;;;;;;;16.42;4.32;;;10.20;99.90;;;10.76;69.84;101278.97;5094653;28;20192;-76
2021/04/20 00:25:33;;;;;;;14.57;4.15;;;10.20;99.90;;;10.72;70.01;101282.56;5095831;28;20207;-75
2021/04/20 00:27:59;;;;;;;11.88;3.65;;;10.10;99.90;;;10.69;70.27;101285.25;5081015;28;20192;-74
2021/04/20 00:30:26;;;;;;;13.65;3.75;;;10.10;99.90;;;10.63;70.26;101277.59;5073948;28;20212;-75
2021/04/20 00:32:53;;;;;;;11.63;3.45;;;10.00;99.90;;;10.59;70.48;101273.34;5073924;28;20188;-74
2021/04/20 00:35:19;;;;;;;12.15;3.85;;;9.90;99.90;;;10.56;70.71;101276.06;5085814;28;20212;-73
2021/04/20 00:37:46;;;;;;;12.60;3.60;;;9.90;99.90;;;10.54;70.91;101278.72;5075894;28;20196;-74
2021/04/20 00:40:15;;;;;;;13.00;3.75;;;9.80;99.90;;;10.52;70.94;101274.41;5073176;28;20219;-74
2021/04/20 00:42:47;;;;;;;13.57;3.83;;;9.80;99.90;;;10.49;70.93;101278.00;5079348;28;20571;-75
2021/04/20 00:45:16;;;;;;;12.23;3.70;;;9.70;99.90;;;10.47;71.15;101276.31;5077291;28;20676;-75
2021/04/20 00:47:43;;;;;;;12.57;3.65;;;9.70;99.90;;;10.48;71.47;101289.38;5087382;28;20208;-73
2021/04/20 00:50:12;;;;;;;13.35;3.67;;;9.70;99.90;;;10.48;71.41;101283.28;5089947;28;20463;-74
2021/04/20 00:52:39;;;;;;;12.73;3.58;;;9.70;99.90;;;10.47;71.73;101286.78;5074358;28;20558;-75
2021/04/20 00:55:08;;;;;;;10.32;3.42;;;9.60;99.90;;;10.46;71.55;101285.06;5074433;28;20183;-75
2021/04/20 00:57:37;;;;;;;15.85;3.85;;;9.60;99.90;;;10.45;71.69;101278.13;5073011;28;20246;-75
2021/04/20 01:00:08;;;;;;;12.40;3.38;;;9.70;99.90;;;10.44;71.76;101279.00;5066067;28;20212;-73
2021/04/20 01:02:35;;;;;;;10.00;3.70;;;9.60;99.90;;;10.43;71.85;101280.78;5074740;28;20196;-75
2021/04/20 01:05:06;;;;;;;13.40;3.60;;;9.60;99.90;;;10.40;72.14;101273.00;5085423;28;20199;-73
2021/04/20 01:07:32;;;;;;;12.43;3.72;;;9.60;99.90;;;10.39;72.15;101275.66;5070918;28;20192;-74
2021/04/20 01:09:59;;;;;;;13.98;4.07;;;9.70;99.90;;;10.37;72.09;101272.22;5074745;28;20599;-75
2021/04/20 01:12:26;;;;;;;11.80;3.80;;;9.60;99.90;;;10.36;72.04;101266.16;5074558;28;20717;-75
2021/04/20 01:14:52;;;;;;;12.05;3.50;;;9.60;99.90;;;10.33;72.15;101268.00;5077655;28;20188;-75
2021/04/20 01:17:25;;;;;;;13.65;3.50;;;9.60;99.90;;;10.32;72.28;101266.25;5071756;28;20207;-75
2021/04/20 01:19:55;;;;;;;12.35;3.35;;;9.60;99.90;;;10.31;72.43;101257.56;5073747;28;20199;-75
2021/04/20 01:22:24;;;;;;;13.23;3.70;;;9.50;99.90;;;10.27;72.63;101258.56;5073914;28;20545;-75
2021/04/20 01:24:52;;;;;;;15.52;3.60;;;9.50;99.90;;;10.22;72.91;101263.06;5090194;28;20196;-75
2021/04/20 01:27:18;;;;;;;12.93;4.18;;;9.50;99.90;;;10.18;73.26;101257.94;5070987;28;20181;-75
2021/04/20 01:29:45;;;;;;;11.25;3.58;;;9.40;99.90;;;10.11;73.02;101255.50;5073866;28;20188;-75
2021/04/20 01:32:11;;;;;;;14.50;3.80;;;9.40;99.90;;;10.07;73.51;101259.06;5070105;28;20275;-75
2021/04/20 01:34:39;;;;;;;11.02;3.33;;;9.40;99.90;;;10.07;73.60;101253.84;5073523;28;20199;-75
2021/04/20 01:37:06;;;;;;;13.07;3.60;;;9.30;99.90;;;10.02;73.82;101250.50;5070559;28;20217;-75
2021/04/20 01:39:33;;;;;;;11.63;3.67;;;9.30;99.90;;;9.98;73.67;101256.69;5072829;28;20188;-75
2021/04/20 01:42:01;;;;;;;10.70;3.55;;;9.30;99.90;;;9.99;74.11;101247.97;5067945;28;20212;-75
2021/04/20 01:44:28;;;;;;;11.95;3.63;;;9.30;99.90;;;10.00;74.22;101252.28;5073839;28;20188;-74
2021/04/20 01:46:54;;;;;;;14.93;4.18;;;9.30;99.90;;;9.99;74.21;101253.19;5069284;28;20197;-75
2021/04/20 01:49:22;;;;;;;11.70;3.55;;;9.30;99.90;;;9.94;74.55;101249.84;5080313;28;20202;-74
2021/04/20 01:51:52;;;;;;;12.25;4.05;;;9.30;99.90;;;9.91;74.85;101249.06;5077189;28;20215;-74
2021/04/20 01:54:19;;;;;;;12.15;3.60;;;9.20;99.90;;;9.88;74.97;101249.97;5082917;28;20677;-75
2021/04/20 01:56:48;;;;;;;15.55;4.10;;;9.20;99.90;;;9.87;75.02;101247.41;5092742;28;20242;-75
2021/04/20 01:59:18;;;;;;;13.98;3.90;;;9.20;99.90;;;9.85;75.17;101254.44;5083977;28;20192;-75
2021/04/20 02:01:46;;;;;;;14.13;3.65;;;9.20;99.90;;;9.84;75.40;101253.59;5071569;28;20212;-75
2021/04/20 02:04:12;;;;;;;10.60;3.75;;;9.20;99.90;;;9.85;75.48;101257.03;5073159;28;20199;-74
2021/04/20 02:06:42;;;;;;;11.10;3.70;;;9.10;99.90;;;9.84;75.65;101261.44;5071718;28;20214;-76
2021/04/20 02:09:10;;;;;;;15.95;3.95;;;9.10;99.90;;;9.85;75.28;101257.03;5071585;28;20610;-75
2021/04/20 02:11:37;;;;;;;13.27;3.53;;;9.10;99.90;;;9.86;75.18;101254.38;5085651;28;20217;-74
2021/04/20 02:14:04;;;;;;;12.02;4.10;;;9.10;99.90;;;9.86;75.16;101251.78;5077971;28;20199;-74
2021/04/20 02:16:33;;;;;;;9.40;3.70;;;9.10;99.90;;;9.81;75.28;101251.03;5081334;28;20219;-75
2021/04/20 02:19:05;;;;;;;14.07;4.30;;;9.10;99.90;;;9.78;75.32;101253.72;5078870;28;20188;-75
2021/04/20 02:21:32;;;;;;;16.15;4.50;;;9.10;99.90;;;9.79;75.17;101255.47;5076384;28;20212;-76
2021/04/20 02:23:59;;;;;;;13.65;3.83;;;9.00;99.90;;;9.78;75.67;101252.88;5073396;28;20199;-75
2021/04/20 02:26:30;;;;;;;14.23;4.20;;;9.00;99.90;;;9.74;75.67;101251.25;5073161;28;20211;-73
2021/04/20 02:28:59;;;;;;;14.85;4.00;;;9.00;99.90;;;9.69;75.96;101251.38;5090218;28;20258;-77
2021/04/20 02:31:26;;;;;;;17.33;4.53;;;8.90;99.90;;;9.62;76.22;101244.56;5086417;28;20341;-76
2021/04/20 02:33:55;;;;;;;13.70;4.20;;;8.90;99.90;;;9.55;76.56;101245.63;5073760;28;20187;-75
2021/04/20 02:36:22;;;;;;;17.13;4.72;;;8.90;99.90;;;9.47;76.75;101247.56;5076364;28;20767;-75
2021/04/20 02:38:49;;;;;;;15.90;3.95;;;8.80;99.90;;;9.41;77.05;101245.09;5071594;28;20192;-77
2021/04/20 02:41:18;;;;;;;14.07;4.60;;;8.80;99.90;;;9.36;77.21;101243.50;5074950;28;20213;-76
2021/04/20 02:43:46;;;;;;;12.13;4.50;;;8.70;99.90;;;9.34;76.88;101235.72;5073501;28;20186;-75
2021/04/20 02:46:14;;;;;;;12.52;4.18;;;8.70;99.90;;;9.32;77.24;101247.06;5067580;28;20185;-74
2021/04/20 02:48:41;;;;;;;10.98;3.92;;;8.60;99.90;;;9.27;77.05;101244.56;5070769;28;20211;-74
2021/04/20 02:51:12;;;;;;;12.43;3.83;;;8.60;99.90;;;9.22;77.35;101241.22;5078283;28;20204;-75
2021/04/20 02:53:41;;;;;;;12.38;4.65;;;8.50;99.90;;;9.16;77.74;101240.50;5071796;28;20188;-75
2021/04/20 02:56:08;;;;;;;12.55;4.22;;;8.50;99.90;;;9.15;77.79;101233.53;5067440;28;20221;-77
2021/04/20 02:58:35;;;;;;;13.75;4.03;;;8.50;99.90;;;9.11;77.80;101235.38;5051367;28;20189;-77
2021/04/20 03:01:06;;;;;;;15.23;4.22;;;8.40;99.90;;;9.07;77.92;101236.34;5069107;28;20246;-77
2021/04/20 03:03:36;;;;;;;12.60;3.95;;;8.40;99.90;;;9.04;78.12;101235.56;5072536;28;20181;-74
2021/04/20 03:06:04;;;;;;;15.68;4.47;;;8.30;99.90;;;9.04;78.16;101236.44;5056150;28;20543;-77
2021/04/20 03:08:34;;;;;;;13.43;4.07;;;8.30;99.90;;;9.00;77.98;101234.78;5060961;28;20295;-77
2021/04/20 03:11:06;;;;;;;14.85;4.78;;;8.30;99.90;;;8.95;78.46;101234.00;5069596;28;20234;-77
2021/04/20 03:13:33;;;;;;;16.83;4.50;;;8.30;99.90;;;8.94;79.06;101228.84;5088046;28;20270;-77
2021/04/20 03:16:05;;;;;;;12.35;4.20;;;8.20;99.90;;;8.91;79.12;101229.75;5077307;28;20209;-76
2021/04/20 03:18:32;;;;;;;13.93;4.90;;;8.20;99.90;;;8.88;79.25;101232.44;5087205;28;20192;-77
2021/04/20 03:21:00;;;;;;;14.07;4.65;;;8.20;99.90;;;8.86;78.99;101231.59;5078406;28;20234;-77
2021/04/20 03:23:31;;;;;;;13.65;4.97;;;8.20;99.90;;;8.85;79.24;101222.06;5091258;28;20207;-77
2021/04/20 03:26:00;;;;;;;12.32;4.45;;;8.20;99.90;;;8.85;79.08;101215.09;5065254;28;20202;-77
2021/04/20 03:28:27;;;;;;;14.65;5.28;;;8.10;99.90;;;8.79;78.94;101212.63;5075659;28;20711;-75
2021/04/20 03:30:54;;;;;;;13.85;4.10;;;8.10;99.90;;;8.75;79.18;101215.34;5070870;28;20223;-72
2021/04/20 03:33:29;;;;;;;13.85;4.43;;;8.10;99.90;;;8.73;79.01;101214.50;5065368;28;20534;-75
2021/04/20 03:36:05;;;;;;;11.85;4.38;;;8.10;99.90;;;8.73;79.48;101225.81;5075702;28;20207;-75
2021/04/20 03:38:39;;;;;;;17.33;4.53;;;8.10;99.90;;;8.71;79.70;101217.16;5077284;28;20195;-75
2021/04/20 03:41:19;;;;;;;16.38;4.65;;;8.00;99.90;;;8.71;79.41;101205.84;5075965;28;20562;-75
2021/04/20 03:43:50;;;;;;;15.20;4.80;;;8.00;99.90;;;8.67;79.63;101212.03;5075127;28;20601;-74
2021/04/20 03:46:22;;;;;;;13.48;4.90;;;8.00;99.90;;;8.63;79.68;101211.25;5074190;28;20898;-75
2021/04/20 03:48:55;;;;;;;17.38;5.18;;;8.00;99.90;;;8.59;80.12;101217.41;5070018;28;20622;-75
2021/04/20 03:51:27;;;;;;;12.98;4.63;;;7.90;99.90;;;8.55;79.97;101209.69;5080995;28;20218;-75
2021/04/20 03:53:58;;;;;;;11.15;4.20;;;7.90;99.90;;;8.53;79.98;101217.56;5079006;28;20181;-75
2021/04/20 03:56:28;;;;;;;21.35;4.97;;;7.90;99.90;;;8.50;80.28;101216.75;5088451;28;20775;-75
2021/04/20 03:58:59;;;;;;;21.92;4.80;;;7.80;99.90;;;8.47;80.15;101211.63;5070815;28;20196;-75
2021/04/20 04:01:31;;;;;;;16.10;4.55;;;7.80;99.90;;;8.43;80.51;101212.56;5072125;28;20219;-75
2021/04/20 04:03:58;;;;;;;16.17;5.18;;;7.80;99.90;;;8.42;80.64;101214.28;5070362;28;20249;-76
2021/04/20 04:06:25;;;;;;;14.98;5.45;;;7.80;99.90;;;8.41;80.41;101224.75;5074042;28;20206;-75
2021/04/20 04:08:53;;;;;;;15.73;5.15;;;7.80;99.90;;;8.42;80.64;101218.66;5067640;28;20242;-76
2021/04/20 04:11:23;;;;;;;16.60;5.00;;;7.80;99.90;;;8.42;80.41;101221.28;5073854;28;20229;-76
2021/04/20 04:13:50;;;;;;;15.02;4.65;;;7.80;99.90;;;8.41;80.30;101227.38;5091002;28;20218;-75
2021/04/20 04:16:23;;;;;;;13.32;4.32;;;7.70;99.90;;;8.39;80.63;101218.75;5076484;28;20204;-77
2021/04/20 04:18:55;;;;;;;14.48;4.90;;;7.70;99.90;;;8.37;80.77;101223.13;5081176;28;20656;-76
2021/04/20 04:21:30;;;;;;;15.73;5.00;;;7.70;99.90;;;8.37;80.31;101226.56;5055920;28;20735;-77
2021/04/20 04:24:05;;;;;;;16.10;5.25;;;7.70;99.90;;;8.34;80.57;101224.03;5077442;28;20198;-76
2021/04/20 04:26:37;;;;;;;21.35;5.07;;;7.70;99.90;;;8.32;80.62;101233.63;5091261;28;20207;-74
2021/04/20 04:29:10;;;;;;;14.85;5.30;;;7.70;99.90;;;8.30;81.08;101239.78;5069876;28;20223;-78
2021/04/20 04:31:43;;;;;;;18.33;5.20;;;7.70;99.90;;;8.29;80.99;101245.88;5074914;28;20703;-77
2021/04/20 04:34:12;;;;;;;16.05;4.80;;;7.70;99.90;;;8.30;80.93;101250.19;5076416;28;20676;-76
2021/04/20 04:36:40;;;;;;;18.27;4.85;;;7.70;99.90;;;8.30;80.98;101242.38;5066436;28;20205;-75
2021/04/20 04:39:10;;;;;;;15.35;5.00;;;7.70;99.90;;;8.30;80.89;101235.44;5065344;28;20185;-75
2021/04/20 04:41:37;;;;;;;17.20;5.40;;;7.70;99.90;;;8.28;80.78;101233.72;5074166;28;20216;-75
2021/04/20 04:44:05;;;;;;;15.75;5.40;;;7.70;99.90;;;8.31;80.80;101238.88;5071079;28;20200;-74
2021/04/20 04:46:31;;;;;;;16.50;5.55;;;7.70;99.90;;;8.28;80.84;101231.13;5068677;28;20572;-77
2021/04/20 04:49:00;;;;;;;18.75;5.22;;;7.70;99.90;;;8.22;80.67;101239.03;5068022;28;20196;-76
2021/04/20 04:51:28;;;;;;;17.92;4.78;;;7.70;99.90;;;8.18;80.63;101242.56;5083514;28;20216;-74
2021/04/20 04:53:58;;;;;;;15.32;4.68;;;7.70;99.90;;;8.21;80.74;101248.59;5067900;28;20207;-73
2021/04/20 04:56:25;;;;;;;17.15;5.25;;;7.70;99.90;;;8.25;80.43;101244.22;5069002;28;20691;-75
2021/04/20 04:58:55;;;;;;;16.60;5.28;;;7.70;99.90;;;8.24;80.60;101245.13;5078900;28;20191;-76
2021/04/20 05:01:24;;;;;;;11.82;4.82;;;7.70;99.90;;;8.21;79.99;101246.00;5089134;28;20227;-75
2021/04/20 05:03:51;;;;;;;22.92;5.97;;;7.70;99.90;;;8.21;80.19;101246.00;5073899;28;20552;-75
2021/04/20 05:06:20;;;;;;;16.85;4.97;;;7.60;99.90;;;8.20;79.98;101254.72;5056678;28;20215;-75
2021/04/20 05:08:46;;;;;;;19.38;6.18;;;7.70;99.90;;;8.15;80.08;101246.13;5084136;28;20718;-76
2021/04/20 05:11:14;;;;;;;16.35;5.72;;;7.70;99.90;;;8.15;80.28;101245.25;5071535;28;20261;-75
2021/04/20 05:13:40;;;;;;;17.33;5.43;;;7.60;99.90;;;8.14;80.26;101244.38;5065690;28;20676;-77
2021/04/20 05:16:08;;;;;;;17.05;5.70;;;7.60;99.90;;;8.17;80.01;101248.69;5069661;28;20707;-75
2021/04/20 05:18:38;;;;;;;20.50;6.05;;;7.60;99.90;;;8.19;80.23;101255.56;5065571;28;20292;-75
2021/04/20 05:21:05;;;;;;;17.02;5.75;;;7.60;99.90;;;8.20;80.43;101253.84;5066952;28;20212;-75
2021/04/20 05:23:31;;;;;;;18.85;6.22;;;7.70;99.90;;;8.21;80.36;101258.16;5067953;28;20204;-74
2021/04/20 05:25:57;;;;;;;17.67;5.75;;;7.70;99.90;;;8.23;80.46;101249.47;5086076;28;20659;-75
2021/04/20 05:28:24;;;;;;;21.95;6.38;;;7.80;99.90;;;8.26;80.42;101253.75;5069739;28;20542;-76
2021/04/20 05:30:53;;;;;;;17.02;6.07;;;7.80;99.90;;;8.28;80.49;101254.56;5066986;28;20219;-75
2021/04/20 05:33:19;;;;;;;17.25;6.38;;;7.80;99.90;;;8.29;80.10;101254.53;5065546;28;20195;-75
2021/04/20 05:35:46;;;;;;;16.90;5.93;;;7.80;99.90;;;8.31;79.92;101257.13;5070920;28;20234;-76
2021/04/20 05:38:13;;;;;;;15.88;5.85;;;7.80;99.90;;;8.33;80.22;101261.44;5085248;28;20188;-76
2021/04/20 05:40:41;;;;;;;20.13;6.30;;;7.90;99.90;;;8.38;79.90;101250.91;5079622;28;20226;-76
2021/04/20 05:43:08;;;;;;;19.92;6.30;;;7.90;99.90;;;8.44;79.46;101250.78;5068182;28;20578;-75
2021/04/20 05:45:35;;;;;;;18.23;6.72;;;7.90;99.90;;;8.47;79.23;101253.34;5067665;28;20193;-76
2021/04/20 05:48:02;;;;;;;20.65;6.43;;;8.00;99.90;;;8.48;79.08;101255.03;5070244;28;20672;-76
2021/04/20 05:50:31;;;;;;;20.90;6.38;;;8.00;99.90;;;8.49;79.29;101257.63;5069608;28;20208;-75
2021/04/20 05:53:00;;;;;;;18.55;6.70;;;8.00;99.90;;;8.47;79.39;101258.56;5071540;28;20186;-73
2021/04/20 05:55:27;;;;;;;17.52;6.35;;;8.00;99.90;;;8.50;79.25;101254.13;5071885;28;20185;-74
2021/04/20 05:57:55;;;;;;;21.60;7.60;;;8.00;99.90;;;8.56;79.30;101251.38;5071853;28;20203;-75
2021/04/20 06:00:24;;;;;;;23.27;6.80;;;8.00;99.90;;;8.62;79.26;101253.03;5074252;28;20227;-75
2021/04/20 06:02:54;;;;;;;27.02;8.82;;;8.10;99.90;;;8.69;78.82;101259.84;5072330;28;20195;-76
2021/04/20 06:05:23;;;;;;;28.23;10.55;;;8.10;99.90;;;8.76;78.71;101254.44;5056696;28;20184;-75
2021/04/20 06:07:52;;;;;;;19.05;7.03;;;8.20;99.90;;;8.85;78.38;101250.78;5061792;28;20193;-75
2021/04/20 06:10:20;;;;;;;18.70;6.63;;;8.30;99.90;;;8.92;78.49;101244.53;5063555;28;20556;-73
2021/04/20 06:12:47;;;;;;;24.83;8.05;;;8.40;99.90;;;8.97;78.19;101250.50;5070568;28;20206;-77
2021/04/20 06:15:20;;;;;;;22.05;7.97;;;8.50;99.90;;;9.03;78.27;101247.75;5070887;28;20200;-76
2021/04/20 06:17:47;;;;;;;23.23;7.80;;;8.50;99.90;;;9.05;78.03;101253.78;5068178;28;20220;-77
2021/04/20 06:20:17;;;;;;;27.70;8.07;;;8.60;99.90;;;9.11;77.88;101248.44;5066481;28;20223;-75
2021/04/20 06:22:47;;;;;;;16.17;6.97;;;8.70;99.90;;;9.17;77.70;101248.31;5068620;28;20212;-76
2021/04/20 06:25:16;;;;;;;24.80;7.32;;;8.70;99.90;;;9.17;77.27;101247.44;5071320;28;20249;-77
2021/04/20 06:27:46;;;;;;;21.30;7.25;;;8.80;99.90;;;9.19;77.38;101246.53;5087442;28;20208;-75
2021/04/20 06:30:15;;;;;;;27.73;8.10;;;8.90;99.90;;;9.31;76.84;101251.44;5070058;28;20223;-74
2021/04/20 06:32:45;;;;;;;20.55;8.00;;;8.90;99.90;;;9.39;76.02;101244.28;5060683;28;20292;-73
2021/04/20 06:35:16;;;;;;;31.50;9.50;;;9.00;99.90;;;9.44;76.11;101250.25;5065752;28;20287;-74
2021/04/20 06:37:45;;;;;;;26.02;7.68;;;9.10;99.90;;;9.49;76.01;101245.78;5070675;28;20252;-75
2021/04/20 06:40:17;;;;;;;22.05;8.00;;;9.20;99.90;;;9.56;75.75;101236.03;5070108;28;20706;-75
2021/04/20 06:42:51;;;;;;;29.40;8.05;;;9.20;99.90;;;9.64;75.44;101240.19;5070688;28;20265;-76
2021/04/20 06:45:26;;;;;;;17.50;7.40;;;9.40;99.90;;;9.78;75.00;101248.50;5079690;28;20188;-76
2021/04/20 06:47:58;;;;;;;20.02;6.60;;;9.50;99.90;;;9.87;74.98;101248.28;5068949;28;20212;-75
2021/04/20 06:50:27;;;;;;;25.20;6.78;;;9.60;99.90;;;9.96;74.67;101250.63;5070336;28;20657;-76
2021/04/20 06:53:00;;;;;;;18.25;6.45;;;9.70;99.90;;;9.99;74.27;101249.72;5086624;28;20216;-76
2021/04/20 06:55:37;;;;;;;17.52;6.15;;;9.80;99.90;;;9.99;74.22;101249.72;5084343;28;20196;-77
2021/04/20 06:58:14;;;;;;;19.95;6.47;;;9.80;99.90;;;10.03;74.09;101248.72;5071093;28;20191;-75
2021/04/20 07:00:44;;;;;;;19.63;6.30;;;9.90;99.90;;;10.13;73.95;101250.22;5071261;28;20214;-75
2021/04/20 07:03:21;;;;;;;15.93;5.80;;;10.00;99.90;;;10.19;73.35;101250.06;5067596;28;20203;-75
2021/04/20 07:05:55;;;;;;;14.57;6.03;;;10.10;99.90;;;10.28;72.98;101243.72;5065784;28;20192;-76
2021/04/20 07:08:31;;;;;;;18.63;6.32;;;10.20;99.90;;;10.36;72.79;101237.38;5066237;28;20191;-75
2021/04/20 07:11:00;;;;;;;19.10;6.38;;;10.30;99.90;;;10.48;72.51;101246.63;5067692;28;20226;-75
2021/04/20 07:13:30;;;;;;;16.17;6.25;;;10.40;99.90;;;10.52;71.97;101238.66;5070533;28;20609;-74
2021/04/20 07:15:59;;;;;;;20.73;6.22;;;10.50;99.90;;;10.56;71.83;101235.06;5067586;28;20212;-77
2021/04/20 07:18:59;;;;;;;19.10;6.28;;;10.50;99.90;;;10.66;71.34;101244.34;5071583;28;20242;-76
2021/04/20 07:22:12;;;;;;;16.58;6.00;;;10.60;99.90;;;10.73;71.43;101227.56;5065361;28;20211;-76
2021/04/20 07:25:12;;;;;;;17.38;6.38;;;10.70;99.90;;;10.83;70.97;101229.00;5028343;28;20221;-77
2021/04/20 07:27:59;;;;;;;17.63;6.30;;;10.90;99.90;;;10.92;70.89;101233.06;5024512;28;20201;-76
2021/04/20 07:30:39;;;;;;;20.30;5.57;;;10.90;99.90;;;10.97;70.58;101218.06;5073555;28;20212;-76
2021/04/20 07:33:30;;;;;;;14.88;6.60;;;11.00;99.90;;;11.06;70.52;101225.66;5085899;28;20571;-76
2021/04/20 07:36:12;;;;;;;18.38;5.88;;;11.10;99.90;;;11.15;70.34;101225.38;5069933;28;20587;-77
2021/04/20 07:38:51;;;;;;;20.73;6.10;;;11.20;99.90;;;11.23;70.00;101228.63;5082981;28;20250;-76
2021/04/20 07:41:30;;;;;;;20.67;6.18;;;11.30;99.90;;;11.28;69.89;101226.69;5064494;28;20212;-76
2021/04/20 07:44:12;;;;;;;14.15;5.75;;;11.40;99.90;;;11.38;69.75;101221.13;5070451;28;20279;-76
2021/04/20 07:46:46;;;;;;;17.38;5.50;;;11.50;99.90;;;11.50;69.50;101219.84;5066937;28;20304;-76
2021/04/20 07:49:21;;;;;;;13.88;5.07;;;11.60;99.90;;;11.62;69.13;101222.03;5070417;28;20187;-73
2021/04/20 07:52:02;;;;;;;16.10;5.88;;;11.80;99.90;;;11.69;68.75;101217.50;5061053;28;20585;-73
2021/04/20 07:54:44;;;;;;;18.08;5.82;;;11.80;99.90;;;11.77;68.73;101216.31;5063985;28;20188;-73
2021/04/20 07:57:19;;;;;;;16.38;5.70;;;11.90;99.90;;;11.87;68.44;101215.09;5067160;28;20220;-75
2021/04/20 07:59:58;;;;;;;14.10;6.05;;;12.00;99.90;;;12.03;68.30;101215.41;5066367;28;20278;-73
2021/04/20 08:02:39;;;;;;;14.98;5.53;;;12.10;99.90;;;12.19;67.93;101208.72;5058707;28;20207;-73
2021/04/20 08:05:16;;;;;;;15.25;5.45;;;12.30;99.90;;;12.28;67.52;101209.25;5061006;28;20245;-72
2021/04/20 08:07:57;;;;;;;15.32;5.80;;;12.40;99.90;;;12.34;67.73;101203.75;5080532;28;20232;-74
2021/04/20 08:10:31;;;;;;;15.85;6.32;;;12.50;99.90;;;12.44;67.73;101206.91;5076443;28;20675;-74
2021/04/20 08:13:08;;;;;;;14.43;5.38;;;12.60;99.90;;;12.53;67.56;101201.31;5067123;28;20224;-74
2021/04/20 08:15:45;;;;;;;16.92;5.05;;;12.70;99.90;;;12.61;67.07;101200.09;5065844;28;20198;-74
2021/04/20 08:18:21;;;;;;;16.60;5.82;;;12.80;99.90;;;12.70;66.75;101204.16;5069065;28;20208;-73
2021/04/20 08:20:52;;;;;;;15.77;5.40;;;12.90;99.90;;;12.74;66.63;101207.53;5067941;28;20235;-74
2021/04/20 08:23:20;;;;;;;14.88;6.07;;;12.90;99.90;;;12.79;66.22;101197.69;5071020;28;20252;-73
2021/04/20 08:25:57;;;;;;;20.73;6.55;;;13.00;99.90;;;12.84;65.88;101190.50;5070686;28;20258;-74
2021/04/20 08:28:32;;;;;;;16.85;5.88;;;13.00;99.90;;;12.89;65.77;101192.03;5069036;28;20548;-74
2021/04/20 08:31:07;;;;;;;21.63;6.50;;;13.10;99.90;;;12.97;65.50;101191.72;5071422;28;20220;-73
2021/04/20 08:33:41;;;;;;;21.00;6.10;;;13.10;99.90;;;13.06;65.74;101194.03;5068905;28;20202;-71
2021/04/20 08:36:19;;;;;;;15.45;5.53;;;13.20;99.90;;;13.13;65.19;101182.34;5071568;28;20205;-71
2021/04/20 08:38:58;;;;;;;15.98;5.38;;;13.30;99.90;;;13.19;64.38;101189.97;5068641;28;20188;-72
2021/04/20 08:41:34;;;;;;;18.55;5.93;;;13.30;99.90;;;13.20;64.18;101189.91;5068317;28;20200;-73
2021/04/20 08:44:20;;;;;;;17.08;5.88;;;13.30;99.90;;;13.27;64.15;101185.25;5069904;28;20188;-73
2021/04/20 08:46:56;;;;;;;16.95;6.22;;;13.40;99.90;;;13.33;64.30;101187.66;5073503;28;20200;-72
2021/04/20 08:49:35;;;;;;;15.90;6.60;;;13.50;99.90;;;13.38;64.17;101185.69;5063497;28;20274;-74
2021/04/20 08:52:06;;;;;;;16.40;5.75;;;13.60;99.90;;;13.46;64.10;101183.59;5070237;28;20272;-74
2021/04/20 08:54:52;;;;;;;16.45;6.15;;;13.60;99.90;;;13.56;63.56;101180.47;5086840;28;20200;-72
2021/04/20 08:57:27;;;;;;;17.10;5.60;;;13.80;99.90;;;13.68;63.34;101174.72;5073568;28;20206;-73
2021/04/20 09:00:13;;;;;;;20.90;5.47;;;13.90;99.90;;;13.81;63.17;101180.31;5085817;28;20197;-72
2021/04/20 09:02:55;;;;;;;15.98;5.00;;;14.00;99.90;;;13.88;62.77;101178.28;5064949;28;20292;-73
2021/04/20 09:05:30;;;;;;;15.85;5.40;;;14.10;99.90;;;13.96;62.41;101178.78;5072061;28;20639;-74
2021/04/20 09:08:11;;;;;;;18.58;6.10;;;14.20;99.90;;;14.03;61.69;101180.22;5065466;28;20226;-73
2021/04/20 09:10:45;;;;;;;17.42;6.28;;;14.20;99.90;;;14.07;61.03;101177.38;5072896;28;20220;-74
2021/04/20 09:13:18;;;;;;;16.63;6.05;;;14.20;99.90;;;14.12;60.85;101178.03;5081366;28;20196;-72
2021/04/20 09:15:50;;;;;;;17.00;5.90;;;14.30;99.90;;;14.20;60.87;101181.16;5077100;28;20202;-73
2021/04/20 09:18:23;;;;;;;15.85;6.25;;;14.40;99.90;;;14.26;61.13;101175.69;5063738;28;20645;-73
2021/04/20 09:21:01;;;;;;;14.70;5.25;;;14.50;99.90;;;14.34;61.09;101184.06;5069920;28;20211;-73
2021/04/20 09:23:45;;;;;;;13.70;5.57;;;14.50;99.90;;;14.40;61.02;101170.63;5066210;28;20614;-74
2021/04/20 09:26:29;;;;;;;21.98;5.78;;;14.60;99.90;;;14.49;60.98;101166.72;5069982;28;20204;-74
2021/04/20 09:29:13;;;;;;;15.68;5.53;;;14.70;99.90;;;14.54;60.22;101167.34;5077169;28;20200;-72
2021/04/20 09:31:51;;;;;;;17.13;6.35;;;14.70;99.90;;;14.60;59.85;101167.91;5087180;28;20211;-70
2021/04/20 09:34:17;;;;;;;15.07;5.25;;;14.80;99.90;;;14.69;59.96;101172.78;5069501;28;20531;-72
2021/04/20 09:36:47;;;;;;;13.30;5.70;;;14.90;99.90;;;14.70;59.75;101168.38;5086959;28;20212;-72
2021/04/20 09:39:14;;;;;;;14.88;5.30;;;14.90;99.90;;;14.73;59.49;101163.81;5071353;28;20191;-71
2021/04/20 09:41:44;;;;;;;15.40;5.18;;;14.90;99.90;;;14.79;59.32;101163.50;5070923;28;20216;-71
2021/04/20 09:44:24;;;;;;;18.90;6.13;;;15.00;99.90;;;14.86;59.38;101170.19;5066855;28;20218;-72
2021/04/20 09:47:09;;;;;;;15.60;5.90;;;15.10;99.90;;;14.96;59.32;101162.69;5082509;28;20189;-71
2021/04/20 09:49:49;;;;;;;14.73;5.53;;;15.10;99.90;;;15.07;58.79;101171.78;5082560;28;20872;-71
2021/04/20 09:52:20;;;;;;;22.27;9.48;;;15.20;99.90;;;15.12;58.21;101170.72;5064224;28;20207;-71
2021/04/20 09:54:55;;;;;;;21.48;9.23;;;15.30;99.90;;;15.19;57.99;101165.06;5066538;28;20196;-72
2021/04/20 09:57:29;;;;;;;24.90;9.88;;;15.30;99.90;;;15.24;57.50;101167.47;5066788;28;20220;-71
2021/04/20 10:00:03;;;;;;;20.88;7.40;;;15.40;99.90;;;15.27;57.16;101165.53;5064172;28;20211;-70
2021/04/20 10:02:49;;;;;;;17.67;6.75;;;15.50;99.90;;;15.33;57.14;101167.00;5067066;28;20219;-71
2021/04/20 10:05:28;;;;;;;15.77;6.25;;;15.50;99.90;;;15.39;57.14;101167.59;5063915;28;21536;-73
2021/04/20 10:08:27;;;;;;;20.33;6.90;;;15.60;99.90;;;15.50;56.59;101162.66;5067070;28;20196;-70
2021/04/20 10:11:03;;;;;;;18.65;7.60;;;15.60;99.90;;;15.53;56.00;101164.25;5064429;28;20204;-71
2021/04/20 10:13:53;;;;;;;17.75;7.28;;;15.70;99.90;;;15.55;55.71;101160.63;5063884;28;20195;-71
2021/04/20 10:16:27;;;;;;;16.80;6.43;;;15.70;99.90;;;15.61;56.50;101159.44;5085920;28;20208;-72
2021/04/20 10:19:11;;;;;;;13.35;5.82;;;15.70;99.90;;;15.65;56.21;101155.72;5069563;28;20192;-70
2021/04/20 10:21:57;;;;;;;15.20;5.60;;;15.80;99.90;;;15.66;55.84;101147.72;5067204;28;20220;-73
2021/04/20 10:24:29;;;;;;;17.33;5.70;;;15.80;99.90;;;15.71;55.73;101152.75;5071313;28;20188;-74
2021/04/20 10:27:03;;;;;;;21.55;7.90;;;15.90;99.90;;;15.84;55.51;101149.41;5073183;28;20192;-71
2021/04/20 10:29:37;;;;;;;15.23;5.55;;;16.00;99.90;;;15.95;55.07;101154.13;5065522;28;20204;-72
2021/04/20 10:32:13;;;;;;;14.20;6.32;;;16.10;99.90;;;15.97;54.63;101153.13;5086334;28;20220;-73